Time;durP1;ratioP1;P1;durP2;ratioP2;P2;SDS_P1;SDS_P2;PMS_P1;PMS_P2;Temp;Humidity;BMP_temperature;BMP_pressure;BME280_temperature;BME280_humidity;BME280_pressure;Samples;Min_cycle;Max_cycle;Signal;HPM_P1;HPM_P2
2022/01/05 00:01:03;;;;;;;3.03;1.42;;;8.50;99.90;;;;;;10505277;28;20533;-62
2022/01/05 00:06:03;;;;;;;2.75;1.60;;;8.50;99.90;;;;;;10522085;28;20655;-66
2022/01/05 00:11:06;;;;;;;2.72;1.65;;;8.40;99.90;;;;;;10522952;28;20024;-66
2022/01/05 00:16:07;;;;;;;3.88;1.90;;;8.40;99.90;;;;;;10521915;28;20035;-66
2022/01/05 00:21:08;;;;;;;2.17;1.98;;;8.40;99.90;;;;;;10535908;28;20509;-64
2022/01/05 00:26:09;;;;;;;4.10;1.40;;;8.40;99.90;;;;;;10527018;28;20051;-64
2022/01/05 00:31:09;;;;;;;6.45;1.50;;;8.40;99.90;;;;;;10521494;28;20628;-60
2022/01/05 00:36:10;;;;;;;3.08;1.10;;;8.40;99.90;;;;;;10527016;28;20035;-61
2022/01/05 00:41:11;;;;;;;4.63;1.40;;;8.40;99.90;;;;;;10530685;28;20065;-63
2022/01/05 00:46:12;;;;;;;1.90;1.40;;;8.30;99.90;;;;;;10507790;28;20134;-66
2022/01/05 00:51:15;;;;;;;2.33;1.10;;;8.30;99.90;;;;;;10526884;28;20111;-66
2022/01/05 00:56:15;;;;;;;2.90;1.25;;;8.30;99.90;;;;;;10534287;28;20067;-65
2022/01/05 01:01:16;;;;;;;3.15;1.30;;;8.30;99.90;;;;;;10519600;28;20048;-64
2022/01/05 01:06:17;;;;;;;3.35;1.70;;;8.30;99.90;;;;;;10527924;28;20048;-60
2022/01/05 01:11:18;;;;;;;2.25;1.30;;;8.30;99.90;;;;;;10531786;28;20016;-65
2022/01/05 01:16:19;;;;;;;4.25;1.10;;;8.30;99.90;;;;;;10517029;28;20059;-65
2022/01/05 01:21:20;;;;;;;3.40;1.17;;;8.20;99.90;;;;;;10535202;28;20024;-66
2022/01/05 01:26:22;;;;;;;5.22;1.10;;;8.20;99.90;;;;;;10535061;28;20040;-67
2022/01/05 01:31:23;;;;;;;4.32;1.20;;;8.20;99.90;;;;;;10528294;28;20371;-61
2022/01/05 01:36:24;;;;;;;2.20;0.95;;;8.20;99.90;;;;;;10534312;28;20028;-61
2022/01/05 01:41:25;;;;;;;2.30;1.77;;;8.20;99.90;;;;;;10536542;28;20111;-63
2022/01/05 01:46:26;;;;;;;4.32;1.60;;;8.20;99.90;;;;;;10532523;28;20036;-61
2022/01/05 01:51:27;;;;;;;3.67;1.08;;;8.20;99.90;;;;;;10532327;28;20111;-60
2022/01/05 01:56:32;;;;;;;5.63;1.52;;;8.10;99.90;;;;;;10530777;28;20020;-60
2022/01/05 02:01:33;;;;;;;3.05;1.13;;;8.10;99.90;;;;;;10512347;28;20104;-61
2022/01/05 02:06:34;;;;;;;4.97;1.25;;;8.10;99.90;;;;;;10525324;28;20055;-66
2022/01/05 02:11:38;;;;;;;4.70;0.85;;;8.10;99.90;;;;;;10524131;28;20025;-66
2022/01/05 02:16:42;;;;;;;3.15;1.08;;;8.10;99.90;;;;;;10521118;28;20030;-67
2022/01/05 02:21:43;;;;;;;4.07;1.13;;;8.10;99.90;;;;;;10542213;28;20050;-61
2022/01/05 02:26:44;;;;;;;2.97;1.00;;;8.10;99.90;;;;;;10530375;28;20050;-63
2022/01/05 02:31:45;;;;;;;2.42;0.93;;;8.10;99.90;;;;;;10529961;28;20669;-61
2022/01/05 02:36:46;;;;;;;6.53;1.17;;;8.10;99.90;;;;;;10531874;28;20042;-61
2022/01/05 02:41:47;;;;;;;4.63;1.10;;;8.10;99.90;;;;;;10517126;28;20078;-62
2022/01/05 02:46:47;;;;;;;5.10;1.33;;;8.10;99.90;;;;;;10531735;28;20043;-61
2022/01/05 02:51:48;;;;;;;2.58;0.90;;;8.00;99.90;;;;;;10532498;28;20445;-61
2022/01/05 02:56:49;;;;;;;3.35;1.02;;;8.10;99.90;;;;;;10526762;28;20029;-61
2022/01/05 03:01:50;;;;;;;4.22;1.10;;;8.00;99.90;;;;;;10512319;28;20056;-60
2022/01/05 03:06:50;;;;;;;5.57;1.50;;;8.00;99.90;;;;;;10524179;28;20122;-65
2022/01/05 03:11:51;;;;;;;7.53;1.50;;;8.10;99.90;;;;;;10519111;28;20482;-62
2022/01/05 03:16:52;;;;;;;8.68;1.35;;;8.10;99.80;;;;;;10519417;28;20042;-62
2022/01/05 03:21:53;;;;;;;4.80;1.05;;;8.20;99.90;;;;;;10539354;28;20024;-62
2022/01/05 03:26:54;;;;;;;8.68;1.52;;;8.10;99.80;;;;;;10525468;28;20036;-62
2022/01/05 03:31:55;;;;;;;4.22;1.10;;;8.00;99.80;;;;;;10525845;28;20024;-61
2022/01/05 03:36:56;;;;;;;6.95;1.55;;;8.00;99.70;;;;;;10522801;28;20453;-62
2022/01/05 03:41:57;;;;;;;4.30;1.20;;;8.00;99.70;;;;;;10527976;28;20492;-62
2022/01/05 03:46:58;;;;;;;2.63;1.05;;;8.10;99.70;;;;;;10527145;28;20040;-62
2022/01/05 03:51:58;;;;;;;4.72;1.52;;;8.10;99.70;;;;;;10516990;28;20507;-60
2022/01/05 03:56:59;;;;;;;4.20;1.13;;;8.00;99.70;;;;;;10526783;28;20012;-63
2022/01/05 04:02:00;;;;;;;6.97;1.85;;;8.00;99.70;;;;;;10513251;28;20249;-63
2022/01/05 04:07:01;;;;;;;6.72;1.42;;;8.00;99.70;;;;;;10521148;28;20052;-62
2022/01/05 04:12:01;;;;;;;6.45;1.27;;;8.00;99.70;;;;;;10515407;28;20427;-63
2022/01/05 04:17:04;;;;;;;7.25;2.03;;;8.00;99.70;;;;;;10517067;28;20031;-63
2022/01/05 04:22:05;;;;;;;3.03;0.93;;;8.00;99.70;;;;;;10531950;28;20107;-61
2022/01/05 04:27:05;;;;;;;4.18;1.05;;;8.00;99.70;;;;;;10523235;28;20405;-64
2022/01/05 04:32:07;;;;;;;4.05;1.05;;;8.00;99.60;;;;;;10525210;28;20032;-65
2022/01/05 04:37:07;;;;;;;4.22;1.48;;;8.00;99.60;;;;;;10520941;28;20390;-58
2022/01/05 04:42:08;;;;;;;9.00;1.48;;;8.00;99.60;;;;;;10530460;28;20023;-66
2022/01/05 04:47:09;;;;;;;5.82;1.13;;;8.00;99.60;;;;;;10525895;28;20387;-65
2022/01/05 04:52:10;;;;;;;7.15;1.00;;;8.10;99.60;;;;;;10526549;28;20492;-66
2022/01/05 04:57:11;;;;;;;5.78;1.35;;;8.10;99.60;;;;;;10518575;28;20048;-67
2022/01/05 05:02:12;;;;;;;6.70;1.30;;;8.00;99.60;;;;;;10515838;28;20150;-65
2022/01/05 05:07:13;;;;;;;6.60;1.20;;;8.00;99.70;;;;;;10506250;28;20079;-65
2022/01/05 05:12:13;;;;;;;7.10;1.17;;;8.00;99.60;;;;;;10519784;28;20119;-65
2022/01/05 05:17:14;;;;;;;4.45;0.85;;;8.30;99.70;;;;;;10525914;28;20028;-66
2022/01/05 05:22:15;;;;;;;10.10;1.20;;;8.10;99.60;;;;;;10537114;28;20028;-64
2022/01/05 05:27:16;;;;;;;3.88;1.20;;;8.00;99.60;;;;;;10518330;28;20574;-64
2022/01/05 05:32:16;;;;;;;3.97;1.33;;;8.00;99.60;;;;;;10504446;28;20167;-62
2022/01/05 05:37:17;;;;;;;4.82;0.95;;;8.00;99.50;;;;;;10514061;28;20466;-64
2022/01/05 05:42:18;;;;;;;4.65;1.20;;;8.00;99.50;;;;;;10536005;28;20036;-65
2022/01/05 05:47:19;;;;;;;1.83;0.90;;;8.00;99.50;;;;;;10532299;28;20028;-64
2022/01/05 05:52:19;;;;;;;4.53;1.38;;;8.00;99.50;;;;;;10531963;28;20028;-65
2022/01/05 05:57:20;;;;;;;6.57;1.17;;;8.00;99.50;;;;;;10523466;28;20069;-65
2022/01/05 06:02:21;;;;;;;9.02;1.30;;;8.00;99.50;;;;;;10517819;28;20028;-64
2022/01/05 06:07:21;;;;;;;7.18;1.13;;;8.00;99.50;;;;;;10486618;28;20049;-62
2022/01/05 06:12:22;;;;;;;3.65;1.10;;;8.00;99.50;;;;;;10462437;28;20029;-66
2022/01/05 06:17:23;;;;;;;8.98;1.73;;;8.00;99.50;;;;;;10462652;28;20028;-63
2022/01/05 06:22:23;;;;;;;8.18;1.50;;;8.00;99.50;;;;;;10495250;28;20651;-60
2022/01/05 06:27:24;;;;;;;4.93;1.20;;;8.00;99.50;;;;;;10464891;28;20613;-61
2022/01/05 06:32:25;;;;;;;6.35;0.90;;;8.00;99.60;;;;;;10460899;28;20024;-61
2022/01/05 06:37:26;;;;;;;4.20;1.45;;;8.00;99.60;;;;;;10465840;28;20037;-64
2022/01/05 06:42:26;;;;;;;7.07;1.13;;;8.00;99.60;;;;;;10475429;28;20036;-64
2022/01/05 06:47:27;;;;;;;4.22;1.33;;;8.00;99.60;;;;;;10467504;28;20253;-64
2022/01/05 06:52:27;;;;;;;3.92;1.13;;;8.00;99.70;;;;;;10459702;28;20044;-64
2022/01/05 06:57:28;;;;;;;4.18;1.17;;;8.00;99.70;;;;;;10460509;28;20467;-59
2022/01/05 07:02:29;;;;;;;4.80;1.02;;;8.00;99.70;;;;;;10468745;28;20429;-61
2022/01/05 07:07:30;;;;;;;7.38;1.35;;;8.00;99.80;;;;;;10471626;28;20080;-63
2022/01/05 07:12:31;;;;;;;8.82;1.65;;;8.00;99.80;;;;;;10461279;28;20029;-59
2022/01/05 07:17:33;;;;;;;10.35;1.30;;;8.00;99.80;;;;;;10443096;28;21509;-66
2022/01/05 07:22:34;;;;;;;3.13;1.20;;;8.00;99.80;;;;;;10488124;28;20413;-64
2022/01/05 07:27:35;;;;;;;9.40;1.50;;;8.00;99.80;;;;;;10469414;28;20042;-60
2022/01/05 07:32:45;;;;;;;5.93;1.35;;;8.00;99.80;;;;;;10482291;28;20088;-62
2022/01/05 07:37:46;;;;;;;9.27;1.23;;;8.00;99.80;;;;;;10470058;28;20043;-66
2022/01/05 07:42:47;;;;;;;5.95;1.25;;;8.00;99.90;;;;;;10464515;28;20059;-62
2022/01/05 07:47:48;;;;;;;6.85;1.02;;;8.00;99.90;;;;;;10460860;28;20398;-65
2022/01/05 07:52:48;;;;;;;7.43;1.10;;;8.00;99.90;;;;;;10468939;28;20036;-65
2022/01/05 07:57:50;;;;;;;6.18;1.52;;;8.00;99.90;;;;;;10453742;28;20033;-63
2022/01/05 08:02:50;;;;;;;3.85;0.93;;;8.30;99.90;;;;;;10463970;28;20119;-66
2022/01/05 08:07:51;;;;;;;4.18;1.17;;;8.00;99.90;;;;;;10469238;28;20131;-66
2022/01/05 08:12:52;;;;;;;5.97;1.70;;;8.10;99.90;;;;;;10461066;28;20414;-69
2022/01/05 08:17:53;;;;;;;5.68;1.25;;;8.00;99.90;;;;;;10457395;28;20506;-65
2022/01/05 08:22:53;;;;;;;5.47;1.45;;;8.10;99.90;;;;;;10468874;28;20049;-70
2022/01/05 08:27:54;;;;;;;5.03;1.80;;;8.00;99.90;;;;;;10464711;28;21044;-64
2022/01/05 08:32:55;;;;;;;3.75;0.93;;;8.00;99.90;;;;;;10454444;28;20036;-70
2022/01/05 08:37:56;;;;;;;8.57;0.98;;;8.30;99.90;;;;;;10463419;28;20071;-67
2022/01/05 08:42:57;;;;;;;3.60;1.00;;;8.00;99.90;;;;;;10459526;28;20237;-62
2022/01/05 08:47:59;;;;;;;5.25;1.13;;;8.10;99.90;;;;;;10458348;28;20520;-63
2022/01/05 08:53:01;;;;;;;3.58;1.13;;;8.10;99.90;;;;;;10459172;28;20079;-62
2022/01/05 08:58:03;;;;;;;4.05;1.33;;;8.10;99.90;;;;;;10454806;28;20021;-63
2022/01/05 09:03:05;;;;;;;5.70;1.10;;;8.10;99.90;;;;;;10447930;28;20041;-65
2022/01/05 09:08:06;;;;;;;4.15;0.95;;;8.10;99.90;;;;;;10508701;28;20393;-69
2022/01/05 09:13:09;;;;;;;9.48;1.27;;;8.10;99.90;;;;;;10480446;28;20037;-65
2022/01/05 09:18:10;;;;;;;6.70;1.10;;;8.10;99.90;;;;;;10500571;28;20509;-64
2022/01/05 09:23:11;;;;;;;1.98;0.85;;;8.10;99.90;;;;;;10508880;28;20031;-64
2022/01/05 09:28:12;;;;;;;4.07;1.30;;;8.10;99.90;;;;;;10505827;28;20028;-62
2022/01/05 09:33:14;;;;;;;6.45;1.13;;;8.10;99.90;;;;;;10533170;28;20119;-64
2022/01/05 09:43:55;;;;;;;4.22;1.05;;;8.20;99.90;;;;;;10500585;28;20051;-61
2022/01/05 09:49:10;;;;;;;4.10;0.93;;;8.20;99.90;;;;;;10531080;28;20477;-62
2022/01/05 09:54:14;;;;;;;5.75;1.17;;;8.30;99.90;;;;;;10525899;28;20024;-65
2022/01/05 09:59:16;;;;;;;5.95;1.27;;;8.20;99.90;;;;;;10514253;28;20072;-64
2022/01/05 10:04:16;;;;;;;5.88;1.20;;;8.30;99.90;;;;;;10516511;28;20032;-64
2022/01/05 10:09:17;;;;;;;3.47;0.93;;;8.30;99.90;;;;;;10457148;28;20407;-65
2022/01/05 10:14:18;;;;;;;7.47;1.30;;;8.30;99.90;;;;;;10467433;28;20040;-64
2022/01/05 10:19:21;;;;;;;3.20;0.80;;;8.30;99.90;;;;;;10470357;28;20020;-64
2022/01/05 10:24:43;;;;;;;3.90;1.15;;;8.30;99.90;;;;;;10475711;28;20095;-63
2022/01/05 10:30:01;;;;;;;3.65;1.08;;;8.40;99.90;;;;;;10467757;28;20066;-65
2022/01/05 10:35:25;;;;;;;2.45;0.65;;;8.40;99.90;;;;;;10463339;28;20036;-63
2022/01/05 10:40:26;;;;;;;2.08;0.70;;;8.40;99.90;;;;;;10470121;28;20102;-64
2022/01/05 10:45:51;;;;;;;4.95;0.90;;;8.40;99.90;;;;;;10466713;28;20127;-65
2022/01/05 10:51:05;;;;;;;3.65;0.98;;;8.40;99.90;;;;;;10464504;28;20029;-65
2022/01/05 10:56:05;;;;;;;4.88;1.17;;;8.40;99.90;;;;;;10470664;28;20050;-65
2022/01/05 11:01:07;;;;;;;3.42;0.77;;;8.40;99.90;;;;;;10458303;28;20031;-65
2022/01/05 11:06:13;;;;;;;6.63;1.17;;;8.40;99.90;;;;;;10490597;28;20052;-65
2022/01/05 11:11:38;;;;;;;3.03;0.95;;;8.50;99.90;;;;;;10498170;28;20093;-72
2022/01/05 11:16:41;;;;;;;4.63;0.73;;;8.50;99.90;;;;;;10501600;28;20046;-61
2022/01/05 11:21:57;;;;;;;5.40;0.98;;;8.50;99.90;;;;;;10497672;28;20402;-70
2022/01/05 11:27:00;;;;;;;5.10;0.88;;;8.60;99.90;;;;;;10505033;28;20036;-62
2022/01/05 11:32:06;;;;;;;3.10;0.88;;;8.70;99.90;;;;;;10502624;28;20060;-62
2022/01/05 11:37:07;;;;;;;5.03;1.02;;;8.80;99.90;;;;;;10528323;28;20177;-65
2022/01/05 11:42:12;;;;;;;4.93;1.20;;;8.90;99.90;;;;;;10520796;28;20016;-62
2022/01/05 11:47:24;;;;;;;2.92;0.90;;;8.90;99.90;;;;;;10527213;28;20066;-64
2022/01/05 11:53:00;;;;;;;2.15;0.90;;;8.90;99.90;;;;;;10526487;28;20024;-65
2022/01/05 11:58:15;;;;;;;3.92;1.05;;;8.90;99.90;;;;;;10510787;28;20079;-67
2022/01/05 12:03:52;;;;;;;1.65;0.90;;;8.90;99.90;;;;;;10512680;28;20040;-63
2022/01/05 12:08:56;;;;;;;4.13;0.90;;;8.90;99.90;;;;;;10512278;28;20056;-62
2022/01/05 12:13:58;;;;;;;10.27;1.20;;;8.80;99.90;;;;;;10526600;28;20058;-65
2022/01/05 12:19:06;;;;;;;4.60;1.15;;;8.90;99.90;;;;;;10522899;28;20028;-67
2022/01/05 12:24:07;;;;;;;6.75;1.23;;;8.90;99.90;;;;;;10517661;28;20123;-67
2022/01/05 12:29:09;;;;;;;2.30;0.70;;;8.90;99.90;;;;;;10521524;28;20111;-67
2022/01/05 12:34:09;;;;;;;4.13;0.85;;;9.00;99.90;;;;;;10498022;28;20032;-61
2022/01/05 12:39:10;;;;;;;3.50;1.23;;;9.00;99.90;;;;;;10518058;28;20102;-68
2022/01/05 12:44:11;;;;;;;3.80;1.20;;;8.90;99.90;;;;;;10506680;28;20086;-58
2022/01/05 12:49:19;;;;;;;3.20;1.00;;;8.90;99.90;;;;;;10529380;28;20480;-64
2022/01/05 12:54:23;;;;;;;6.73;1.30;;;8.90;99.90;;;;;;10533680;28;20100;-65
2022/01/05 12:59:38;;;;;;;5.25;0.88;;;8.90;99.90;;;;;;10517094;28;20796;-61
2022/01/05 13:04:45;;;;;;;1.65;0.80;;;8.90;99.90;;;;;;10520799;28;20037;-64
2022/01/05 13:09:57;;;;;;;2.10;0.77;;;8.90;99.90;;;;;;10528221;28;20035;-64
2022/01/05 13:15:00;;;;;;;4.50;0.73;;;8.90;99.90;;;;;;10523202;28;20430;-62
2022/01/05 13:20:14;;;;;;;4.43;1.05;;;8.90;99.90;;;;;;10521461;28;20013;-64
2022/01/05 13:25:22;;;;;;;4.00;1.10;;;8.90;99.90;;;;;;10530297;28;20079;-64
2022/01/05 13:30:25;;;;;;;4.05;0.85;;;8.90;99.90;;;;;;10522533;28;20028;-62
2022/01/05 13:35:37;;;;;;;4.18;0.85;;;8.90;99.90;;;;;;10521201;28;20101;-67
2022/01/05 13:40:42;;;;;;;5.60;1.00;;;8.90;99.90;;;;;;10503363;28;20031;-66
2022/01/05 13:45:48;;;;;;;6.70;1.15;;;8.90;99.90;;;;;;10531043;28;20039;-66
2022/01/05 13:50:51;;;;;;;2.80;0.88;;;8.90;99.90;;;;;;10530869;28;20735;-66
2022/01/05 13:56:15;;;;;;;3.58;0.85;;;8.90;99.90;;;;;;10530989;28;20024;-64
2022/01/05 14:01:19;;;;;;;2.55;1.05;;;9.00;99.90;;;;;;10503435;28;20036;-61
2022/01/05 14:06:23;;;;;;;2.53;0.98;;;8.90;99.90;;;;;;10498786;28;20047;-67
2022/01/05 14:11:24;;;;;;;4.55;1.02;;;8.90;99.90;;;;;;10519511;28;20566;-65
2022/01/05 14:16:40;;;;;;;4.63;1.05;;;8.90;99.90;;;;;;10498132;28;20035;-58
2022/01/05 14:21:46;;;;;;;6.95;1.30;;;8.90;99.90;;;;;;10529318;28;20012;-61
2022/01/05 14:26:47;;;;;;;3.33;0.68;;;8.90;99.90;;;;;;10505164;28;20050;-60
2022/01/05 14:31:48;;;;;;;5.15;1.27;;;8.90;99.90;;;;;;10496485;28;20374;-60
2022/01/05 14:36:53;;;;;;;2.85;1.10;;;8.90;99.90;;;;;;10489166;28;20020;-60
2022/01/05 14:42:03;;;;;;;3.22;1.33;;;8.90;99.90;;;;;;10502603;28;20068;-64
2022/01/05 14:47:07;;;;;;;4.78;1.00;;;8.90;99.90;;;;;;10485715;28;20040;-62
2022/01/05 14:52:11;;;;;;;4.50;0.80;;;8.90;99.90;;;;;;10492878;28;20748;-61
2022/01/05 14:57:16;;;;;;;6.00;1.08;;;8.90;99.90;;;;;;10496885;28;20426;-63
2022/01/05 15:02:17;;;;;;;3.60;0.95;;;8.90;99.90;;;;;;10494325;28;20788;-61
2022/01/05 15:07:18;;;;;;;6.40;1.30;;;8.90;99.90;;;;;;10497182;28;20059;-67
2022/01/05 15:12:18;;;;;;;7.05;0.90;;;8.80;99.90;;;;;;10529543;28;20069;-71
2022/01/05 15:17:19;;;;;;;4.60;0.90;;;8.90;99.90;;;;;;10495773;28;20711;-62
2022/01/05 15:22:20;;;;;;;3.38;1.10;;;8.90;99.90;;;;;;10514910;28;20367;-65
2022/01/05 15:27:21;;;;;;;3.97;1.02;;;8.90;99.90;;;;;;10517880;28;20032;-63
2022/01/05 15:32:21;;;;;;;6.75;1.10;;;8.80;99.90;;;;;;10519047;28;20043;-59
2022/01/05 15:37:23;;;;;;;1.35;0.90;;;8.80;99.90;;;;;;10513990;28;20359;-62
2022/01/05 15:42:24;;;;;;;2.90;1.00;;;8.80;99.90;;;;;;10531487;28;20024;-71
2022/01/05 15:47:24;;;;;;;5.35;1.02;;;8.80;99.90;;;;;;10509360;28;20071;-71
2022/01/05 15:52:25;;;;;;;5.60;1.35;;;8.80;99.90;;;;;;10491895;28;20016;-62
2022/01/05 15:57:51;;;;;;;6.82;1.33;;;8.80;99.90;;;;;;10514482;28;20056;-62
2022/01/05 16:02:47;;;;;;;4.18;1.13;;;8.70;99.90;;;;;;10502370;28;20051;-62
2022/01/05 16:07:47;;;;;;;2.60;0.88;;;8.70;99.90;;;;;;10522599;28;20565;-61
2022/01/05 16:12:48;;;;;;;6.18;1.00;;;8.80;99.90;;;;;;10516673;28;20027;-72
2022/01/05 16:17:49;;;;;;;3.00;0.82;;;8.80;99.90;;;;;;10521928;28;20079;-71
2022/01/05 16:22:50;;;;;;;4.90;1.10;;;8.70;99.90;;;;;;10523835;28;20334;-66
2022/01/05 16:27:53;;;;;;;4.38;1.27;;;8.80;99.90;;;;;;10525335;28;20082;-70
2022/01/05 16:32:54;;;;;;;6.40;1.23;;;8.80;99.90;;;;;;10511997;28;20032;-70
2022/01/05 16:37:55;;;;;;;8.30;1.63;;;8.80;99.90;;;;;;10506476;28;20040;-68
2022/01/05 16:42:55;;;;;;;8.18;1.17;;;8.70;99.90;;;;;;10517924;28;20027;-69
2022/01/05 16:47:56;;;;;;;9.93;1.75;;;8.80;99.90;;;;;;10510110;28;20096;-66
2022/01/05 16:52:57;;;;;;;10.10;2.13;;;8.60;99.90;;;;;;10496933;28;20081;-64
2022/01/05 17:03:17;;;;;;;12.27;3.58;;;8.50;99.90;;;;;;10508290;28;20058;-63
2022/01/05 17:08:19;;;;;;;8.50;1.80;;;8.50;99.90;;;;;;10519976;28;20055;-64
2022/01/05 17:13:20;;;;;;;6.55;2.00;;;8.60;99.90;;;;;;10523746;28;20531;-64
2022/01/05 17:18:22;;;;;;;8.77;2.22;;;8.50;99.90;;;;;;10524751;28;20024;-63
2022/01/05 17:23:23;;;;;;;10.82;1.85;;;8.60;99.90;;;;;;10513987;28;20034;-64
2022/01/05 17:28:23;;;;;;;4.25;1.85;;;8.60;99.90;;;;;;10515984;28;20039;-64
2022/01/05 17:33:24;;;;;;;8.88;1.83;;;8.60;99.90;;;;;;10505428;28;20021;-62
2022/01/05 17:38:25;;;;;;;5.07;1.30;;;8.60;99.90;;;;;;10496494;28;20025;-63
2022/01/05 17:43:26;;;;;;;6.88;1.95;;;8.60;99.90;;;;;;10503117;28;20031;-65
2022/01/05 17:48:27;;;;;;;5.95;1.48;;;8.50;99.90;;;;;;10500731;28;20530;-58
2022/01/05 17:53:30;;;;;;;7.18;1.23;;;8.50;99.90;;;;;;10496867;28;20036;-65
2022/01/05 17:58:31;;;;;;;6.47;1.20;;;8.50;99.90;;;;;;10495504;28;20113;-63
2022/01/05 18:03:31;;;;;;;7.47;1.45;;;8.50;99.90;;;;;;10499600;28;20117;-66
2022/01/05 18:08:32;;;;;;;8.02;1.33;;;8.60;99.90;;;;;;10508288;28;20438;-72
2022/01/05 18:13:33;;;;;;;6.38;1.50;;;8.60;99.90;;;;;;10513932;28;20024;-65
2022/01/05 18:18:39;;;;;;;7.78;1.25;;;8.60;99.90;;;;;;10516228;28;20044;-64
2022/01/05 18:23:40;;;;;;;6.65;1.83;;;8.60;99.90;;;;;;10512718;28;20051;-63
2022/01/05 18:28:41;;;;;;;9.35;1.60;;;8.60;99.90;;;;;;10519344;28;20039;-74
2022/01/05 18:33:42;;;;;;;5.28;1.40;;;8.60;99.90;;;;;;10521395;28;20341;-67
2022/01/05 18:38:43;;;;;;;12.15;2.25;;;8.60;99.90;;;;;;10515886;28;20039;-65
2022/01/05 18:43:45;;;;;;;3.53;1.65;;;8.50;99.90;;;;;;10502774;28;20112;-64
2022/01/05 18:48:48;;;;;;;7.35;1.58;;;8.50;99.90;;;;;;10509239;28;20028;-62
2022/01/05 18:53:50;;;;;;;5.78;1.42;;;8.50;99.90;;;;;;10495426;28;20481;-62
2022/01/05 18:58:54;;;;;;;7.43;2.30;;;8.50;99.90;;;;;;10502283;28;20025;-64
2022/01/05 19:03:55;;;;;;;7.07;1.63;;;8.50;99.90;;;;;;10509932;28;20044;-64
2022/01/05 19:08:56;;;;;;;7.65;1.52;;;8.40;99.90;;;;;;10514047;28;20044;-64
2022/01/05 19:13:57;;;;;;;9.23;1.80;;;8.40;99.90;;;;;;10516228;28;20054;-63
2022/01/05 19:18:57;;;;;;;5.10;1.98;;;8.40;99.90;;;;;;10520571;28;20021;-64
2022/01/05 19:23:59;;;;;;;10.88;2.33;;;8.40;99.90;;;;;;10515484;28;20395;-63
2022/01/05 19:28:59;;;;;;;9.77;2.55;;;8.40;99.90;;;;;;10522708;28;20012;-64
2022/01/05 19:34:00;;;;;;;12.93;2.60;;;8.70;99.90;;;;;;10507000;28;20028;-64
2022/01/05 19:39:02;;;;;;;9.63;2.33;;;8.40;99.90;;;;;;10519843;28;20020;-61
2022/01/05 19:44:03;;;;;;;8.63;2.88;;;8.50;99.90;;;;;;10498718;28;20052;-61
2022/01/05 19:49:04;;;;;;;7.72;2.35;;;8.30;99.90;;;;;;10512134;28;20054;-62
2022/01/05 19:54:19;;;;;;;8.07;2.17;;;8.30;99.90;;;;;;10527101;28;20085;-63
2022/01/05 19:59:20;;;;;;;10.00;2.50;;;8.30;99.90;;;;;;10486956;28;20064;-63
2022/01/05 20:04:20;;;;;;;6.40;2.60;;;8.30;99.90;;;;;;10518247;28;20450;-63
2022/01/05 20:09:22;;;;;;;7.47;2.17;;;8.30;99.90;;;;;;10515762;28;20047;-64
2022/01/05 20:14:23;;;;;;;8.65;2.72;;;8.30;99.90;;;;;;10521421;28;20035;-64
2022/01/05 20:19:23;;;;;;;10.45;2.72;;;8.30;99.90;;;;;;10513705;28;20028;-64
2022/01/05 20:24:25;;;;;;;12.93;3.08;;;8.20;99.90;;;;;;10520923;28;20040;-61
2022/01/05 20:29:29;;;;;;;8.38;2.35;;;8.20;99.90;;;;;;10514848;28;20020;-63
2022/01/05 20:34:30;;;;;;;8.52;2.90;;;8.20;99.90;;;;;;10510095;28;20059;-63
2022/01/05 20:39:32;;;;;;;10.07;2.75;;;8.20;99.90;;;;;;10513363;28;20024;-62
2022/01/05 20:44:33;;;;;;;10.68;3.10;;;8.20;99.90;;;;;;10503716;28;20145;-64
2022/01/05 20:49:34;;;;;;;11.23;3.05;;;8.20;99.90;;;;;;10509343;28;20097;-65
2022/01/05 20:54:34;;;;;;;8.25;2.80;;;8.20;99.90;;;;;;10513340;28;20027;-64
2022/01/05 20:59:35;;;;;;;13.05;3.33;;;8.20;99.90;;;;;;10509137;28;20021;-60
2022/01/05 21:04:36;;;;;;;9.70;2.45;;;8.20;99.90;;;;;;10521146;28;20451;-59
2022/01/05 21:09:36;;;;;;;10.45;3.00;;;8.20;99.90;;;;;;10522556;28;20071;-60
2022/01/05 21:14:37;;;;;;;11.05;2.75;;;8.20;99.90;;;;;;10502803;28;20035;-62
2022/01/05 21:19:38;;;;;;;8.30;2.40;;;8.10;99.90;;;;;;10520040;28;20024;-61
2022/01/05 21:24:39;;;;;;;9.48;2.97;;;8.20;99.90;;;;;;10520395;28;20093;-61
2022/01/05 21:29:40;;;;;;;8.82;2.25;;;8.10;99.90;;;;;;10530252;28;20058;-64
2022/01/05 21:34:41;;;;;;;6.53;2.65;;;8.10;99.90;;;;;;10509180;28;20120;-62
2022/01/05 21:39:43;;;;;;;9.23;1.80;;;8.10;99.90;;;;;;10496818;28;20562;-63
2022/01/05 21:44:43;;;;;;;5.72;2.15;;;8.10;99.90;;;;;;10508749;28;20242;-63
2022/01/05 21:49:44;;;;;;;5.15;2.17;;;8.10;99.90;;;;;;10517515;28;20494;-62
2022/01/05 21:54:45;;;;;;;5.53;2.00;;;8.10;99.90;;;;;;10509869;28;20025;-62
2022/01/05 21:59:48;;;;;;;5.20;2.03;;;8.10;99.90;;;;;;10510291;28;20417;-63
2022/01/05 22:04:48;;;;;;;7.18;1.85;;;8.10;99.90;;;;;;10518286;28;20056;-64
2022/01/05 22:09:49;;;;;;;6.85;2.28;;;8.00;99.90;;;;;;10514174;28;20577;-59
2022/01/05 22:14:50;;;;;;;9.80;2.08;;;8.00;99.90;;;;;;10528415;28;20115;-59
2022/01/05 22:19:50;;;;;;;9.60;2.50;;;8.00;99.90;;;;;;10529933;28;20024;-63
2022/01/05 22:24:51;;;;;;;8.25;2.30;;;8.00;99.90;;;;;;10525865;28;20037;-63
2022/01/05 22:29:52;;;;;;;12.27;2.30;;;8.00;99.90;;;;;;10517353;28;20069;-63
2022/01/05 22:34:53;;;;;;;6.28;1.90;;;8.00;99.90;;;;;;10504148;28;20019;-63
2022/01/05 22:39:54;;;;;;;6.00;1.85;;;8.00;99.90;;;;;;10510988;28;20020;-67
2022/01/05 22:44:55;;;;;;;6.13;1.95;;;8.00;99.90;;;;;;10516876;28;20090;-64
2022/01/05 22:49:56;;;;;;;7.88;1.70;;;8.00;99.90;;;;;;10511442;28;20508;-65
2022/01/05 22:54:56;;;;;;;6.03;2.00;;;8.00;99.90;;;;;;10522075;28;20126;-62
2022/01/05 22:59:57;;;;;;;15.85;1.80;;;8.00;99.90;;;;;;10525166;28;20032;-62
2022/01/05 23:04:58;;;;;;;7.38;1.95;;;7.90;99.90;;;;;;10503329;28;20514;-63
2022/01/05 23:10:00;;;;;;;5.35;1.50;;;7.90;99.90;;;;;;10494834;28;20041;-63
2022/01/05 23:15:01;;;;;;;6.20;1.60;;;7.90;99.90;;;;;;10499901;28;20078;-63
2022/01/05 23:20:03;;;;;;;5.22;1.60;;;7.90;99.90;;;;;;10499779;28;20024;-63
2022/01/05 23:25:05;;;;;;;8.18;1.83;;;7.90;99.90;;;;;;10512716;28;20104;-64
2022/01/05 23:30:14;;;;;;;6.00;1.55;;;7.90;99.90;;;;;;10514837;28;20017;-63
2022/01/05 23:35:16;;;;;;;;;;;7.90;99.90;;;;;;10512367;28;20077;-64
2022/01/05 23:40:17;;;;;;;6.32;1.50;;;7.90;99.90;;;;;;10503802;28;19904;-64
2022/01/05 23:45:18;;;;;;;7.20;1.55;;;7.90;99.90;;;;;;10496366;28;20430;-65
2022/01/05 23:50:20;;;;;;;6.63;1.85;;;7.90;99.90;;;;;;10513155;28;20200;-63
2022/01/05 23:55:21;;;;;;;9.00;1.73;;;7.90;99.90;;;;;;10514066;28;20059;-62
